• Join FlightAware (Why Join?)
  • Login
  • US Flag 
11:21AM EST


 

Airport Tracker/Info


-or-


 

Live Flight TrackerFlight Track Log ✈ SWA1096 ✈ 15-Apr-2013 ✈ KLAS - KSLC

Flight Track Log - Related Links

Times and Time Zones

All times are in EDT time to prevent confusion due to time zone crossing. See the SWA1096 flight status page for this flight to view local times or setup timezone preferences in your user account.

Time Position Orientation Groundspeed Altitude Reporting Facility
EDT Latitude Longitude Course Direction KTS MPH feet Rate Location/Type
09:11AM 36.0761 -115.1683 272° West 140 161 3,500  Level Los Angeles Center
09:12AM 36.0781 -115.2608 272° West 202 232 7,000 3,000 Climbing Los Angeles Center
09:13AM 36.1319 -115.2961 332° Northwest 248 285 10,200 3,600 Climbing Los Angeles Center
09:14AM 36.1817 -115.2267 48° Northeast 288 331 13,500 2,580 Climbing Los Angeles Center
09:15AM 36.1978 -115.1058 81° East 330 380 16,000 2,460 Climbing Los Angeles Center
09:16AM 36.1994 -114.9439 89° East 384 442 19,100 2,880 Climbing Los Angeles Center
09:17AM 36.2089 -114.7947 85° East 425 489 21,900 2,580 Climbing Los Angeles Center
09:18AM 36.2942 -114.6914 44° Northeast 434 499 24,400 2,340 Climbing Los Angeles Center
09:19AM 36.3919 -114.5997 37° Northeast 439 505 26,700 2,280 Climbing Los Angeles Center
09:20AM 36.4919 -114.5033 38° Northeast 450 518 29,000 2,340 Climbing Los Angeles Center
09:21AM 36.5964 -114.4108 35° Northeast 458 527 31,500 1,920 Climbing Los Angeles Center
09:22AM 36.7044 -114.3303 31° Northeast 454 522 33,000 720 Climbing Los Angeles Center
09:23AM 36.8131 -114.2472 31° Northeast 457 526 33,000  Level Los Angeles Center
09:24AM 36.9217 -114.1614 32° Northeast 461 531 33,000  Level Los Angeles Center
09:25AM 37.0300 -114.0775 32° Northeast 459 528 33,000  Level Los Angeles Center
09:26AM 37.1403 -113.9914 32° Northeast 464 534 33,000  Level Los Angeles Center
09:27AM 37.2500 -113.9042 32° Northeast 467 537 33,000  Level Los Angeles Center
09:28AM 37.3664 -113.8133 32° Northeast 470 541 33,000  Level Los Angeles Center
09:29AM 37.4997 -113.7081 32° Northeast 471 542 33,000  Level Salt Lake Center
09:30AM 37.6125 -113.6178 32° Northeast 476 548 33,000  Level Salt Lake Center
09:31AM 37.7267 -113.5275 32° Northeast 480 552 33,000  Level Salt Lake Center
09:32AM 37.8411 -113.4356 32° Northeast 482 555 33,000  Level Salt Lake Center
09:33AM 37.9556 -113.3431 33° Northeast 484 557 33,000  Level Salt Lake Center
09:34AM 38.0686 -113.2508 33° Northeast 483 556 33,000  Level Salt Lake Center
09:35AM 38.1839 -113.1586 32° Northeast 486 559 33,000  Level Salt Lake Center
09:36AM 38.2978 -113.0656 33° Northeast 485 558 33,000 -480 Level Salt Lake Center
09:37AM 38.4142 -112.9811 30° Northeast 482 555 32,100 -1,020 Descending Salt Lake Center
09:39AM 38.5364 -112.9194 22° Northeast 474 545 31,000 -600 Descending Salt Lake Center
09:40AM 38.6611 -112.8508 23° Northeast 481 554 31,000  Level Salt Lake Center
09:41AM 38.7883 -112.7853 22° Northeast 490 564 31,000  Level Salt Lake Center
09:42AM 38.9139 -112.7172 23° Northeast 490 564 31,000  Level Salt Lake Center
09:43AM 39.0667 -112.6342 23° Northeast 496 571 31,000  Level Salt Lake Center
09:44AM 39.1942 -112.5644 23° Northeast 497 572 31,000  Level Salt Lake Center
09:45AM 39.3286 -112.4944 22° Northeast 499 574 31,000 -1,320 Level Salt Lake Center
09:46AM 39.4581 -112.4522 14° North 482 555 28,400 -2,460 Descending Salt Lake Center
09:47AM 39.5839 -112.4103 14° North 469 540 26,000 -2,340 Descending Salt Lake Center
09:48AM 39.7058 -112.3717 14° North 453 521 23,700 -2,220 Descending Salt Lake Center
09:49AM 39.8244 -112.3308 15° North 446 513 21,500 -2,280 Descending Salt Lake Center
09:49AM 39.8819 -112.3231 North 433 498 20,400 -2,220 Descending Salt Lake Center
09:50AM 39.9378 -112.2939 22° Northeast 422 486 19,300 -2,100 Descending Salt Lake Center
09:51AM 40.0442 -112.2567 15° North 399 459 17,100 -1,140 Descending Salt Lake Center
09:52AM 40.1450 -112.2236 14° North 375 432 17,000 -960 Descending Salt Lake Center
09:53AM 40.2403 -112.1908 15° North 357 411 15,200 -1,500 Descending Salt Lake Center
09:54AM 40.3339 -112.1592 14° North 348 400 14,000 -600 Descending Salt Lake Center
09:55AM 40.4264 -112.1275 15° North 344 396 14,000 -840 Level Salt Lake Center
09:56AM 40.5383 -112.0928 13° North 336 387 12,300 -1,440 Descending Salt Lake Center
09:57AM 40.6222 -112.0814 North 318 366 11,200 -720 Descending Salt Lake Center
09:58AM 40.7067 -112.0856 358° North 299 344 11,000 -120 Descending Salt Lake Center
09:59AM 40.7800 -112.0961 354° North 255 293 11,000 -480 Level Salt Lake Center
10:00AM 40.8417 -112.1036 355° North 239 275 10,200 -1,140 Descending Salt Lake Center
10:01AM 40.9144 -112.1128 355° North 246 283 8,700 -1,140 Descending Salt Lake Center
10:02AM 40.9564 -112.0731 36° Northeast 239 275 8,000 -1,020 Descending Salt Lake Center
10:03AM 40.9192 -112.0261 136° Southeast 214 246 6,900 -1,200 Descending Salt Lake Center
10:03AM 40.9111 -112.0189 146° Southeast 213 245 6,600 -1,380 Descending Salt Lake Center
10:04AM 40.8681 -112.0067 168° South 174 200 5,400 -1,140 Descending Salt Lake Center
10:05AM 40.8264 -112.0039 177° South 148 170 4,600 -840 Descending Salt Lake Center
10:07AM 40.7884 -111.9778 159° South  Level Estimated
10:14AM 40.7884 -111.9778 159° South  Level Estimated